sensor_id;sensor_type;location;lat;lon;timestamp;pressure;altitude;pressure_sealevel;temperature;humidity
72892;BME280;61032;50.782;6.818;2024-03-06T00:00:20;100661.19;;;7.66;85.65
72892;BME280;61032;50.782;6.818;2024-03-06T00:01:21;100659.38;;;7.61;85.37
72892;BME280;61032;50.782;6.818;2024-03-06T00:02:21;100665.56;;;7.67;85.49
72892;BME280;61032;50.782;6.818;2024-03-06T00:03:21;100657.72;;;7.74;85.21
72892;BME280;61032;50.782;6.818;2024-03-06T00:04:22;100666.13;;;7.77;84.59
72892;BME280;61032;50.782;6.818;2024-03-06T00:05:22;100667.56;;;7.75;83.90
72892;BME280;61032;50.782;6.818;2024-03-06T00:06:23;100663.00;;;7.70;83.51
72892;BME280;61032;50.782;6.818;2024-03-06T00:07:24;100671.19;;;7.70;83.99
72892;BME280;61032;50.782;6.818;2024-03-06T00:08:24;100669.78;;;7.73;83.74
72892;BME280;61032;50.782;6.818;2024-03-06T00:09:25;100679.09;;;7.72;83.36
72892;BME280;61032;50.782;6.818;2024-03-06T00:10:29;100674.28;;;7.69;82.86
72892;BME280;61032;50.782;6.818;2024-03-06T00:11:29;100676.81;;;7.65;82.72
72892;BME280;61032;50.782;6.818;2024-03-06T00:12:29;100675.91;;;7.56;82.35
72892;BME280;61032;50.782;6.818;2024-03-06T00:13:30;100679.94;;;7.58;83.30
72892;BME280;61032;50.782;6.818;2024-03-06T00:14:30;100674.47;;;7.58;82.99
72892;BME280;61032;50.782;6.818;2024-03-06T00:15:30;100675.69;;;7.52;82.51
72892;BME280;61032;50.782;6.818;2024-03-06T00:16:31;100680.34;;;7.52;82.77
72892;BME280;61032;50.782;6.818;2024-03-06T00:17:32;100678.84;;;7.46;82.65
72892;BME280;61032;50.782;6.818;2024-03-06T00:18:32;100688.56;;;7.38;82.63
72892;BME280;61032;50.782;6.818;2024-03-06T00:19:32;100694.56;;;7.40;83.15
72892;BME280;61032;50.782;6.818;2024-03-06T00:20:33;100684.63;;;7.44;83.65
72892;BME280;61032;50.782;6.818;2024-03-06T00:21:33;100691.22;;;7.43;82.53
72892;BME280;61032;50.782;6.818;2024-03-06T00:22:33;100694.75;;;7.44;82.34
72892;BME280;61032;50.782;6.818;2024-03-06T00:23:34;100692.63;;;7.41;82.95
72892;BME280;61032;50.782;6.818;2024-03-06T00:24:35;100689.59;;;7.42;83.01
72892;BME280;61032;50.782;6.818;2024-03-06T00:25:36;100690.69;;;7.41;82.74
72892;BME280;61032;50.782;6.818;2024-03-06T00:26:36;100694.56;;;7.40;82.85
72892;BME280;61032;50.782;6.818;2024-03-06T00:27:36;100689.91;;;7.41;83.06
72892;BME280;61032;50.782;6.818;2024-03-06T00:28:37;100693.22;;;7.38;82.38
72892;BME280;61032;50.782;6.818;2024-03-06T00:29:38;100700.63;;;7.37;82.21
72892;BME280;61032;50.782;6.818;2024-03-06T00:30:38;100690.41;;;7.43;81.98
72892;BME280;61032;50.782;6.818;2024-03-06T00:31:45;100693.13;;;7.43;81.85
72892;BME280;61032;50.782;6.818;2024-03-06T00:32:46;100702.16;;;7.43;82.51
72892;BME280;61032;50.782;6.818;2024-03-06T00:33:46;100696.19;;;7.41;82.50
72892;BME280;61032;50.782;6.818;2024-03-06T00:34:46;100703.56;;;7.41;82.56
72892;BME280;61032;50.782;6.818;2024-03-06T00:35:47;100708.00;;;7.37;82.39
72892;BME280;61032;50.782;6.818;2024-03-06T00:36:47;100708.31;;;7.35;82.55
72892;BME280;61032;50.782;6.818;2024-03-06T00:37:48;100715.63;;;7.40;82.59
72892;BME280;61032;50.782;6.818;2024-03-06T00:38:48;100711.16;;;7.44;82.79
72892;BME280;61032;50.782;6.818;2024-03-06T00:39:49;100714.72;;;7.44;83.05
72892;BME280;61032;50.782;6.818;2024-03-06T00:40:49;100712.78;;;7.45;82.69
72892;BME280;61032;50.782;6.818;2024-03-06T00:41:49;100713.91;;;7.44;82.58
72892;BME280;61032;50.782;6.818;2024-03-06T00:42:50;100709.13;;;7.49;82.72
72892;BME280;61032;50.782;6.818;2024-03-06T00:43:50;100711.84;;;7.49;82.11
72892;BME280;61032;50.782;6.818;2024-03-06T00:44:51;100708.63;;;7.47;81.68
72892;BME280;61032;50.782;6.818;2024-03-06T00:45:51;100715.69;;;7.48;81.77
72892;BME280;61032;50.782;6.818;2024-03-06T00:46:51;100714.19;;;7.42;81.88
72892;BME280;61032;50.782;6.818;2024-03-06T00:47:52;100715.22;;;7.46;81.95
72892;BME280;61032;50.782;6.818;2024-03-06T00:48:52;100721.28;;;7.43;81.73
72892;BME280;61032;50.782;6.818;2024-03-06T00:49:52;100714.09;;;7.47;81.99
72892;BME280;61032;50.782;6.818;2024-03-06T00:50:53;100717.03;;;7.51;82.29
72892;BME280;61032;50.782;6.818;2024-03-06T00:51:53;100723.81;;;7.53;82.41
72892;BME280;61032;50.782;6.818;2024-03-06T00:52:53;100719.47;;;7.52;82.30
72892;BME280;61032;50.782;6.818;2024-03-06T00:53:54;100712.38;;;7.51;82.52
72892;BME280;61032;50.782;6.818;2024-03-06T00:54:54;100716.22;;;7.50;82.58
72892;BME280;61032;50.782;6.818;2024-03-06T00:55:55;100717.84;;;7.51;82.57
72892;BME280;61032;50.782;6.818;2024-03-06T00:56:56;100717.75;;;7.56;83.07
72892;BME280;61032;50.782;6.818;2024-03-06T00:57:57;100726.16;;;7.60;82.77
72892;BME280;61032;50.782;6.818;2024-03-06T00:58:58;100721.06;;;7.53;82.47
72892;BME280;61032;50.782;6.818;2024-03-06T00:59:58;100717.03;;;7.51;82.86
72892;BME280;61032;50.782;6.818;2024-03-06T01:00:58;100724.25;;;7.47;82.40
72892;BME280;61032;50.782;6.818;2024-03-06T01:01:59;100721.81;;;7.45;82.53
72892;BME280;61032;50.782;6.818;2024-03-06T01:02:59;100719.59;;;7.47;83.04
72892;BME280;61032;50.782;6.818;2024-03-06T01:04:00;100725.66;;;7.44;83.37
72892;BME280;61032;50.782;6.818;2024-03-06T01:05:01;100722.72;;;7.41;83.39
72892;BME280;61032;50.782;6.818;2024-03-06T01:06:04;100732.84;;;7.40;83.25
72892;BME280;61032;50.782;6.818;2024-03-06T01:07:04;100737.50;;;7.40;82.99
72892;BME280;61032;50.782;6.818;2024-03-06T01:08:04;100736.78;;;7.34;83.10
72892;BME280;61032;50.782;6.818;2024-03-06T01:09:05;100737.38;;;7.31;83.68
72892;BME280;61032;50.782;6.818;2024-03-06T01:10:06;100737.50;;;7.26;83.83
72892;BME280;61032;50.782;6.818;2024-03-06T01:11:07;100738.31;;;7.27;84.17
72892;BME280;61032;50.782;6.818;2024-03-06T01:12:07;100728.56;;;7.20;83.76
72892;BME280;61032;50.782;6.818;2024-03-06T01:13:08;100728.94;;;7.14;83.84
72892;BME280;61032;50.782;6.818;2024-03-06T01:14:10;100740.50;;;7.11;83.88
72892;BME280;61032;50.782;6.818;2024-03-06T01:15:11;100738.69;;;7.06;84.30
72892;BME280;61032;50.782;6.818;2024-03-06T01:16:12;100731.88;;;7.04;84.23
72892;BME280;61032;50.782;6.818;2024-03-06T01:17:12;100731.38;;;7.02;84.68
72892;BME280;61032;50.782;6.818;2024-03-06T01:18:13;100734.63;;;7.04;84.90
72892;BME280;61032;50.782;6.818;2024-03-06T01:19:13;100732.78;;;6.99;84.22
72892;BME280;61032;50.782;6.818;2024-03-06T01:20:14;100730.56;;;7.01;84.74
72892;BME280;61032;50.782;6.818;2024-03-06T01:21:14;100740.91;;;7.04;84.52
72892;BME280;61032;50.782;6.818;2024-03-06T01:22:14;100737.16;;;7.00;84.62
72892;BME280;61032;50.782;6.818;2024-03-06T01:23:15;100733.16;;;6.93;85.14
72892;BME280;61032;50.782;6.818;2024-03-06T01:24:17;100738.72;;;6.87;85.21
72892;BME280;61032;50.782;6.818;2024-03-06T01:25:17;100739.81;;;6.86;84.83
72892;BME280;61032;50.782;6.818;2024-03-06T01:26:17;100741.44;;;6.87;85.07
72892;BME280;61032;50.782;6.818;2024-03-06T01:27:18;100741.25;;;6.84;84.73
72892;BME280;61032;50.782;6.818;2024-03-06T01:28:18;100747.22;;;6.86;84.19
72892;BME280;61032;50.782;6.818;2024-03-06T01:29:18;100744.19;;;6.87;84.48
72892;BME280;61032;50.782;6.818;2024-03-06T01:30:19;100743.00;;;6.94;83.79
72892;BME280;61032;50.782;6.818;2024-03-06T01:31:19;100753.19;;;6.88;84.17
72892;BME280;61032;50.782;6.818;2024-03-06T01:32:19;100743.19;;;6.83;84.10
72892;BME280;61032;50.782;6.818;2024-03-06T01:33:20;100745.41;;;6.81;84.65
72892;BME280;61032;50.782;6.818;2024-03-06T01:34:20;100742.44;;;6.78;84.58
72892;BME280;61032;50.782;6.818;2024-03-06T01:35:21;100748.72;;;6.78;84.77
72892;BME280;61032;50.782;6.818;2024-03-06T01:36:21;100745.53;;;6.71;84.10
72892;BME280;61032;50.782;6.818;2024-03-06T01:37:21;100743.22;;;6.65;84.82
72892;BME280;61032;50.782;6.818;2024-03-06T01:38:22;100749.47;;;6.65;84.30
72892;BME280;61032;50.782;6.818;2024-03-06T01:39:22;100747.66;;;6.61;84.15
72892;BME280;61032;50.782;6.818;2024-03-06T01:40:22;100745.22;;;6.59;84.24
72892;BME280;61032;50.782;6.818;2024-03-06T01:41:24;100749.06;;;6.58;83.83
72892;BME280;61032;50.782;6.818;2024-03-06T01:42:25;100749.63;;;6.55;83.81
72892;BME280;61032;50.782;6.818;2024-03-06T01:43:26;100743.66;;;6.53;84.30
72892;BME280;61032;50.782;6.818;2024-03-06T01:44:26;100746.91;;;6.55;84.37
72892;BME280;61032;50.782;6.818;2024-03-06T01:45:26;100749.41;;;6.51;83.93
72892;BME280;61032;50.782;6.818;2024-03-06T01:46:27;100750.22;;;6.52;83.27
72892;BME280;61032;50.782;6.818;2024-03-06T01:47:27;100755.09;;;6.55;83.66
72892;BME280;61032;50.782;6.818;2024-03-06T01:48:28;100747.50;;;6.52;83.51
72892;BME280;61032;50.782;6.818;2024-03-06T01:49:30;100748.59;;;6.51;83.84
72892;BME280;61032;50.782;6.818;2024-03-06T01:50:31;100752.22;;;6.46;83.54
72892;BME280;61032;50.782;6.818;2024-03-06T01:51:32;100748.69;;;6.46;83.42
72892;BME280;61032;50.782;6.818;2024-03-06T01:52:32;100749.50;;;6.46;83.43
72892;BME280;61032;50.782;6.818;2024-03-06T01:53:34;100745.34;;;6.49;83.73
72892;BME280;61032;50.782;6.818;2024-03-06T01:54:35;100745.34;;;6.49;83.17
72892;BME280;61032;50.782;6.818;2024-03-06T01:55:36;100743.31;;;6.41;83.01
72892;BME280;61032;50.782;6.818;2024-03-06T01:56:39;100752.63;;;6.40;83.30
72892;BME280;61032;50.782;6.818;2024-03-06T01:57:44;100756.44;;;6.39;83.04
72892;BME280;61032;50.782;6.818;2024-03-06T01:58:47;100760.88;;;6.35;82.54
72892;BME280;61032;50.782;6.818;2024-03-06T01:59:48;100756.59;;;6.29;83.14
72892;BME280;61032;50.782;6.818;2024-03-06T02:00:50;100755.78;;;6.28;83.65
72892;BME280;61032;50.782;6.818;2024-03-06T02:01:52;100757.69;;;6.28;83.42
72892;BME280;61032;50.782;6.818;2024-03-06T02:02:53;100754.97;;;6.28;83.86
72892;BME280;61032;50.782;6.818;2024-03-06T02:03:54;100751.13;;;6.29;84.56
72892;BME280;61032;50.782;6.818;2024-03-06T02:04:55;100753.56;;;6.30;84.19
72892;BME280;61032;50.782;6.818;2024-03-06T02:05:57;100753.56;;;6.30;83.74
72892;BME280;61032;50.782;6.818;2024-03-06T02:06:59;100759.31;;;6.29;84.23
72892;BME280;61032;50.782;6.818;2024-03-06T02:07:59;100757.69;;;6.28;83.59
72892;BME280;61032;50.782;6.818;2024-03-06T02:08:59;100758.59;;;6.23;83.26
72892;BME280;61032;50.782;6.818;2024-03-06T02:10:00;100761.91;;;6.20;83.39
72892;BME280;61032;50.782;6.818;2024-03-06T02:11:00;100769.88;;;6.16;83.33
72892;BME280;61032;50.782;6.818;2024-03-06T02:12:05;100764.41;;;6.16;82.94
72892;BME280;61032;50.782;6.818;2024-03-06T02:13:05;100761.22;;;6.09;82.37
72892;BME280;61032;50.782;6.818;2024-03-06T02:14:06;100763.94;;;6.09;83.22
72892;BME280;61032;50.782;6.818;2024-03-06T02:15:10;100762.31;;;6.08;82.27
72892;BME280;61032;50.782;6.818;2024-03-06T02:16:12;100763.53;;;6.02;82.68
72892;BME280;61032;50.782;6.818;2024-03-06T02:17:12;100768.16;;;6.02;82.90
72892;BME280;61032;50.782;6.818;2024-03-06T02:18:13;100758.34;;;6.01;82.95
72892;BME280;61032;50.782;6.818;2024-03-06T02:19:13;100760.28;;;6.00;83.59
72892;BME280;61032;50.782;6.818;2024-03-06T02:20:14;100760.28;;;6.00;83.21
72892;BME280;61032;50.782;6.818;2024-03-06T02:21:16;100753.63;;;6.06;83.90
72892;BME280;61032;50.782;6.818;2024-03-06T02:22:16;100754.13;;;6.08;83.49
72892;BME280;61032;50.782;6.818;2024-03-06T02:23:17;100751.41;;;6.08;83.32
72892;BME280;61032;50.782;6.818;2024-03-06T02:24:22;100757.41;;;6.10;83.12
72892;BME280;61032;50.782;6.818;2024-03-06T02:25:22;100755.69;;;6.14;83.64
72892;BME280;61032;50.782;6.818;2024-03-06T02:26:23;100752.16;;;6.14;82.99
72892;BME280;61032;50.782;6.818;2024-03-06T02:27:23;100758.44;;;6.14;83.16
72892;BME280;61032;50.782;6.818;2024-03-06T02:28:23;100754.59;;;6.15;83.27
72892;BME280;61032;50.782;6.818;2024-03-06T02:29:25;100760.34;;;6.14;83.34
72892;BME280;61032;50.782;6.818;2024-03-06T02:30:25;100756.22;;;6.16;83.21
72892;BME280;61032;50.782;6.818;2024-03-06T02:31:26;100752.97;;;6.14;83.21
72892;BME280;61032;50.782;6.818;2024-03-06T02:32:26;100757.31;;;6.15;83.36
72892;BME280;61032;50.782;6.818;2024-03-06T02:33:27;100758.72;;;6.13;82.92
72892;BME280;61032;50.782;6.818;2024-03-06T02:34:27;100755.47;;;6.11;82.56
72892;BME280;61032;50.782;6.818;2024-03-06T02:35:27;100755.47;;;6.11;83.56
72892;BME280;61032;50.782;6.818;2024-03-06T02:36:28;100750.31;;;6.09;82.77
72892;BME280;61032;50.782;6.818;2024-03-06T02:37:28;100754.72;;;6.05;83.33
72892;BME280;61032;50.782;6.818;2024-03-06T02:38:29;100751.78;;;6.02;83.74
72892;BME280;61032;50.782;6.818;2024-03-06T02:39:29;100748.84;;;5.98;84.37
72892;BME280;61032;50.782;6.818;2024-03-06T02:40:33;100751.56;;;5.98;84.46
72892;BME280;61032;50.782;6.818;2024-03-06T02:41:33;100752.72;;;5.92;83.76
72892;BME280;61032;50.782;6.818;2024-03-06T02:42:33;100751.66;;;5.88;84.30
72892;BME280;61032;50.782;6.818;2024-03-06T02:43:34;100751.41;;;5.90;84.68
72892;BME280;61032;50.782;6.818;2024-03-06T02:44:34;100750.00;;;5.92;84.65
72892;BME280;61032;50.782;6.818;2024-03-06T02:45:35;100747.31;;;5.87;84.09
72892;BME280;61032;50.782;6.818;2024-03-06T02:46:35;100752.22;;;5.85;84.61
72892;BME280;61032;50.782;6.818;2024-03-06T02:47:35;100750.41;;;5.80;84.47
72892;BME280;61032;50.782;6.818;2024-03-06T02:48:36;100749.59;;;5.80;84.58
72892;BME280;61032;50.782;6.818;2024-03-06T02:49:36;100757.16;;;5.83;85.26
72892;BME280;61032;50.782;6.818;2024-03-06T02:50:36;100750.59;;;5.84;84.11
72892;BME280;61032;50.782;6.818;2024-03-06T02:51:37;100750.91;;;5.82;84.45
72892;BME280;61032;50.782;6.818;2024-03-06T02:52:39;100749.59;;;5.80;84.81
72892;BME280;61032;50.782;6.818;2024-03-06T02:53:39;100746.88;;;5.80;84.80
72892;BME280;61032;50.782;6.818;2024-03-06T02:54:42;100748.25;;;5.77;84.42
72892;BME280;61032;50.782;6.818;2024-03-06T02:55:42;100754.59;;;5.73;84.43
72892;BME280;61032;50.782;6.818;2024-03-06T02:56:43;100749.69;;;5.70;84.51
72892;BME280;61032;50.782;6.818;2024-03-06T02:57:43;100749.19;;;5.68;84.19
72892;BME280;61032;50.782;6.818;2024-03-06T02:58:44;100756.25;;;5.69;85.13
72892;BME280;61032;50.782;6.818;2024-03-06T02:59:45;100752.50;;;5.65;85.13
72892;BME280;61032;50.782;6.818;2024-03-06T03:00:46;100756.84;;;5.66;84.80
72892;BME280;61032;50.782;6.818;2024-03-06T03:01:46;100761.72;;;5.69;84.77
72892;BME280;61032;50.782;6.818;2024-03-06T03:02:46;100759.00;;;5.69;84.87
72892;BME280;61032;50.782;6.818;2024-03-06T03:03:47;100752.72;;;5.68;84.56
72892;BME280;61032;50.782;6.818;2024-03-06T03:04:47;100748.88;;;5.69;84.39
72892;BME280;61032;50.782;6.818;2024-03-06T03:05:47;100745.63;;;5.67;84.81
72892;BME280;61032;50.782;6.818;2024-03-06T03:06:48;100759.28;;;5.67;84.29
72892;BME280;61032;50.782;6.818;2024-03-06T03:07:48;100743.19;;;5.66;84.07
72892;BME280;61032;50.782;6.818;2024-03-06T03:08:49;100752.56;;;5.60;84.77
72892;BME280;61032;50.782;6.818;2024-03-06T03:09:49;100753.66;;;5.59;84.32
72892;BME280;61032;50.782;6.818;2024-03-06T03:10:50;100749.94;;;5.49;84.33
72892;BME280;61032;50.782;6.818;2024-03-06T03:11:51;100750.81;;;5.45;85.53
72892;BME280;61032;50.782;6.818;2024-03-06T03:12:51;100749.75;;;5.41;85.67
72892;BME280;61032;50.782;6.818;2024-03-06T03:13:52;100751.66;;;5.40;85.25
72892;BME280;61032;50.782;6.818;2024-03-06T03:14:52;100757.72;;;5.37;85.45
72892;BME280;61032;50.782;6.818;2024-03-06T03:15:52;100756.34;;;5.40;85.17
72892;BME280;61032;50.782;6.818;2024-03-06T03:16:53;100759.84;;;5.40;85.42
72892;BME280;61032;50.782;6.818;2024-03-06T03:17:53;100756.97;;;5.32;85.09
72892;BME280;61032;50.782;6.818;2024-03-06T03:18:54;100762.69;;;5.30;85.29
72892;BME280;61032;50.782;6.818;2024-03-06T03:19:54;100758.34;;;5.29;84.83
72892;BME280;61032;50.782;6.818;2024-03-06T03:20:55;100759.50;;;5.23;85.40
72892;BME280;61032;50.782;6.818;2024-03-06T03:21:55;100764.38;;;5.26;85.38
72892;BME280;61032;50.782;6.818;2024-03-06T03:22:56;100765.22;;;5.22;85.47
72892;BME280;61032;50.782;6.818;2024-03-06T03:23:56;100769.28;;;5.24;85.09
72892;BME280;61032;50.782;6.818;2024-03-06T03:24:57;100765.75;;;5.24;85.24
72892;BME280;61032;50.782;6.818;2024-03-06T03:25:57;100768.19;;;5.25;86.08
72892;BME280;61032;50.782;6.818;2024-03-06T03:26:57;100770.09;;;5.25;85.07
72892;BME280;61032;50.782;6.818;2024-03-06T03:27:58;100774.47;;;5.26;86.01
72892;BME280;61032;50.782;6.818;2024-03-06T03:28:59;100770.63;;;5.27;84.95
72892;BME280;61032;50.782;6.818;2024-03-06T03:29:59;100773.34;;;5.27;84.58
72892;BME280;61032;50.782;6.818;2024-03-06T03:30:59;100772.03;;;5.24;85.23
72892;BME280;61032;50.782;6.818;2024-03-06T03:32:00;100776.94;;;5.22;84.57
72892;BME280;61032;50.782;6.818;2024-03-06T03:33:00;100780.75;;;5.21;84.85
72892;BME280;61032;50.782;6.818;2024-03-06T03:34:01;100778.28;;;5.25;85.37
72892;BME280;61032;50.782;6.818;2024-03-06T03:35:01;100785.59;;;5.29;84.76
72892;BME280;61032;50.782;6.818;2024-03-06T03:36:01;100780.19;;;5.24;85.20
72892;BME280;61032;50.782;6.818;2024-03-06T03:37:02;100787.03;;;5.22;84.18
72892;BME280;61032;50.782;6.818;2024-03-06T03:38:02;100793.53;;;5.26;84.26
72892;BME280;61032;50.782;6.818;2024-03-06T03:39:03;100795.97;;;5.27;83.51
72892;BME280;61032;50.782;6.818;2024-03-06T03:40:05;100791.09;;;5.24;83.36
72892;BME280;61032;50.782;6.818;2024-03-06T03:41:10;100791.38;;;5.23;83.89
72892;BME280;61032;50.782;6.818;2024-03-06T03:42:12;100795.44;;;5.25;83.34
72892;BME280;61032;50.782;6.818;2024-03-06T03:43:12;100805.25;;;5.26;84.30
72892;BME280;61032;50.782;6.818;2024-03-06T03:44:17;100806.88;;;5.27;83.74
72892;BME280;61032;50.782;6.818;2024-03-06T03:45:19;100809.56;;;5.32;84.42
72892;BME280;61032;50.782;6.818;2024-03-06T03:46:20;100806.78;;;5.37;84.27
72892;BME280;61032;50.782;6.818;2024-03-06T03:47:20;100814.97;;;5.37;84.65
72892;BME280;61032;50.782;6.818;2024-03-06T03:48:20;100816.88;;;5.37;83.75
72892;BME280;61032;50.782;6.818;2024-03-06T03:49:21;100813.78;;;5.43;83.55
72892;BME280;61032;50.782;6.818;2024-03-06T03:50:21;100814.03;;;5.47;83.67
72892;BME280;61032;50.782;6.818;2024-03-06T03:51:22;100820.53;;;5.51;83.69
72892;BME280;61032;50.782;6.818;2024-03-06T03:52:22;100818.34;;;5.53;83.86
72892;BME280;61032;50.782;6.818;2024-03-06T03:53:22;100817.06;;;5.45;83.34
72892;BME280;61032;50.782;6.818;2024-03-06T03:54:23;100826.00;;;5.51;83.64
72892;BME280;61032;50.782;6.818;2024-03-06T03:55:24;100822.69;;;5.54;84.33
72892;BME280;61032;50.782;6.818;2024-03-06T03:56:25;100826.25;;;5.55;84.01
72892;BME280;61032;50.782;6.818;2024-03-06T03:57:25;100828.69;;;5.56;84.01
72892;BME280;61032;50.782;6.818;2024-03-06T03:58:26;100827.00;;;5.60;83.38
72892;BME280;61032;50.782;6.818;2024-03-06T03:59:26;100836.75;;;5.66;83.64
72892;BME280;61032;50.782;6.818;2024-03-06T04:00:27;100826.69;;;5.62;82.89
72892;BME280;61032;50.782;6.818;2024-03-06T04:01:28;100834.81;;;5.67;83.74
72892;BME280;61032;50.782;6.818;2024-03-06T04:02:28;100835.88;;;5.71;83.55
72892;BME280;61032;50.782;6.818;2024-03-06T04:03:29;100839.41;;;5.71;82.71
72892;BME280;61032;50.782;6.818;2024-03-06T04:04:29;100836.69;;;5.71;83.23
72892;BME280;61032;50.782;6.818;2024-03-06T04:05:29;100838.06;;;5.69;83.46
72892;BME280;61032;50.782;6.818;2024-03-06T04:06:31;100829.66;;;5.65;83.67
72892;BME280;61032;50.782;6.818;2024-03-06T04:07:32;100838.13;;;5.64;83.95
72892;BME280;61032;50.782;6.818;2024-03-06T04:08:32;100836.47;;;5.68;83.66
72892;BME280;61032;50.782;6.818;2024-03-06T04:09:32;100839.19;;;5.68;83.54
72892;BME280;61032;50.782;6.818;2024-03-06T04:10:36;100838.59;;;5.71;84.46
72892;BME280;61032;50.782;6.818;2024-03-06T04:11:37;100836.47;;;5.68;84.23
72892;BME280;61032;50.782;6.818;2024-03-06T04:12:38;100836.97;;;5.70;83.88
72892;BME280;61032;50.782;6.818;2024-03-06T04:13:39;100832.56;;;5.74;83.43
72892;BME280;61032;50.782;6.818;2024-03-06T04:14:39;100832.81;;;5.77;82.98
72892;BME280;61032;50.782;6.818;2024-03-06T04:15:40;100837.47;;;5.77;83.52
72892;BME280;61032;50.782;6.818;2024-03-06T04:16:40;100825.25;;;5.69;82.32
72892;BME280;61032;50.782;6.818;2024-03-06T04:17:40;100833.44;;;5.69;83.20
72892;BME280;61032;50.782;6.818;2024-03-06T04:18:41;100830.19;;;5.67;83.36
72892;BME280;61032;50.782;6.818;2024-03-06T04:19:41;100834.25;;;5.70;83.46
72892;BME280;61032;50.782;6.818;2024-03-06T04:20:41;100839.19;;;5.68;84.23
72892;BME280;61032;50.782;6.818;2024-03-06T04:21:42;100830.72;;;5.69;83.76
72892;BME280;61032;50.782;6.818;2024-03-06T04:22:42;100842.16;;;5.71;83.97
72892;BME280;61032;50.782;6.818;2024-03-06T04:23:44;100833.38;;;5.74;84.02
72892;BME280;61032;50.782;6.818;2024-03-06T04:24:44;100836.97;;;5.70;84.19
72892;BME280;61032;50.782;6.818;2024-03-06T04:25:45;100833.72;;;5.68;84.18
72892;BME280;61032;50.782;6.818;2024-03-06T04:26:45;100836.97;;;5.70;83.78
72892;BME280;61032;50.782;6.818;2024-03-06T04:27:45;100835.06;;;5.70;84.39
72892;BME280;61032;50.782;6.818;2024-03-06T04:28:46;100835.34;;;5.69;83.67
72892;BME280;61032;50.782;6.818;2024-03-06T04:29:47;100831.25;;;5.71;83.20
72892;BME280;61032;50.782;6.818;2024-03-06T04:30:47;100836.75;;;5.66;83.67
72892;BME280;61032;50.782;6.818;2024-03-06T04:31:47;100837.84;;;5.65;83.16
72892;BME280;61032;50.782;6.818;2024-03-06T04:32:48;100834.13;;;5.56;83.85
72892;BME280;61032;50.782;6.818;2024-03-06T04:33:48;100839.88;;;5.55;83.43
72892;BME280;61032;50.782;6.818;2024-03-06T04:34:49;100843.13;;;5.57;83.66
72892;BME280;61032;50.782;6.818;2024-03-06T04:35:49;100836.88;;;5.56;84.04
72892;BME280;61032;50.782;6.818;2024-03-06T04:36:49;100843.38;;;5.60;83.96
72892;BME280;61032;50.782;6.818;2024-03-06T04:37:50;100845.84;;;5.57;82.99
72892;BME280;61032;50.782;6.818;2024-03-06T04:38:50;100847.19;;;5.59;83.85
72892;BME280;61032;50.782;6.818;2024-03-06T04:39:51;100849.63;;;5.61;84.23
72892;BME280;61032;50.782;6.818;2024-03-06T04:40:51;100851.31;;;5.57;83.16
72892;BME280;61032;50.782;6.818;2024-03-06T04:41:52;100851.94;;;5.48;82.47
72892;BME280;61032;50.782;6.818;2024-03-06T04:42:52;100850.88;;;5.44;83.15
72892;BME280;61032;50.782;6.818;2024-03-06T04:43:52;100856.03;;;5.46;83.77
72892;BME280;61032;50.782;6.818;2024-03-06T04:44:53;100853.31;;;5.46;84.08
72892;BME280;61032;50.782;6.818;2024-03-06T04:45:53;100856.38;;;5.39;84.10
72892;BME280;61032;50.782;6.818;2024-03-06T04:46:54;100858.59;;;5.37;84.53
72892;BME280;61032;50.782;6.818;2024-03-06T04:47:55;100857.41;;;5.43;85.15
72892;BME280;61032;50.782;6.818;2024-03-06T04:48:55;100854.94;;;5.47;84.69
72892;BME280;61032;50.782;6.818;2024-03-06T04:49:55;100853.06;;;5.42;84.60
72892;BME280;61032;50.782;6.818;2024-03-06T04:50:57;100855.50;;;5.44;84.89
72892;BME280;61032;50.782;6.818;2024-03-06T04:51:58;100859.56;;;5.46;85.34
72892;BME280;61032;50.782;6.818;2024-03-06T04:52:59;100855.75;;;5.47;84.50
72892;BME280;61032;50.782;6.818;2024-03-06T04:53:59;100860.09;;;5.48;83.96
72892;BME280;61032;50.782;6.818;2024-03-06T04:55:00;100864.22;;;5.46;83.54
72892;BME280;61032;50.782;6.818;2024-03-06T04:56:00;100856.84;;;5.46;84.85
72892;BME280;61032;50.782;6.818;2024-03-06T04:57:00;100866.13;;;5.45;84.51
72892;BME280;61032;50.782;6.818;2024-03-06T04:58:01;100865.06;;;5.41;84.19
72892;BME280;61032;50.782;6.818;2024-03-06T04:59:01;100858.31;;;5.39;83.84
72892;BME280;61032;50.782;6.818;2024-03-06T05:00:03;100864.03;;;5.37;84.62
72892;BME280;61032;50.782;6.818;2024-03-06T05:01:08;100858.31;;;5.39;84.47
72892;BME280;61032;50.782;6.818;2024-03-06T05:02:08;100865.06;;;5.41;84.47
72892;BME280;61032;50.782;6.818;2024-03-06T05:03:09;100864.25;;;5.41;83.96
72892;BME280;61032;50.782;6.818;2024-03-06T05:04:09;100867.28;;;5.39;85.21
72892;BME280;61032;50.782;6.818;2024-03-06T05:05:10;100865.13;;;5.36;84.79
72892;BME280;61032;50.782;6.818;2024-03-06T05:06:11;100875.22;;;5.36;85.21
72892;BME280;61032;50.782;6.818;2024-03-06T05:07:11;100872.25;;;5.32;84.77
72892;BME280;61032;50.782;6.818;2024-03-06T05:08:11;100871.69;;;5.35;85.09
72892;BME280;61032;50.782;6.818;2024-03-06T05:09:12;100873.84;;;5.38;84.98
72892;BME280;61032;50.782;6.818;2024-03-06T05:10:13;100871.13;;;5.38;84.98
72892;BME280;61032;50.782;6.818;2024-03-06T05:11:13;100874.97;;;5.32;84.27
72892;BME280;61032;50.782;6.818;2024-03-06T05:12:14;100875.53;;;5.29;85.02
72892;BME280;61032;50.782;6.818;2024-03-06T05:13:15;100875.53;;;5.29;84.84
72892;BME280;61032;50.782;6.818;2024-03-06T05:14:15;100876.06;;;5.31;85.14
72892;BME280;61032;50.782;6.818;2024-03-06T05:15:15;100876.59;;;5.33;84.78
72892;BME280;61032;50.782;6.818;2024-03-06T05:16:16;100876.31;;;5.35;84.55
72892;BME280;61032;50.782;6.818;2024-03-06T05:17:16;100878.00;;;5.31;84.22
72892;BME280;61032;50.782;6.818;2024-03-06T05:18:17;100872.53;;;5.31;84.02
72892;BME280;61032;50.782;6.818;2024-03-06T05:19:18;100876.06;;;5.31;84.08
72892;BME280;61032;50.782;6.818;2024-03-06T05:20:18;100870.63;;;5.31;83.92
72892;BME280;61032;50.782;6.818;2024-03-06T05:21:20;100877.13;;;5.35;84.06